sensor_id;sensor_type;location;lat;lon;timestamp;P1;durP1;ratioP1;P2;durP2;ratioP2
43311;SDS011;30041;48.300;16.352;2023-04-24T00:02:23;2.42;;;1.60;;
43311;SDS011;30041;48.300;16.352;2023-04-24T00:04:48;2.28;;;1.42;;
43311;SDS011;30041;48.300;16.352;2023-04-24T00:07:14;2.70;;;2.03;;
43311;SDS011;30041;48.300;16.352;2023-04-24T00:09:40;2.97;;;1.70;;
43311;SDS011;30041;48.300;16.352;2023-04-24T00:12:05;2.50;;;1.80;;
43311;SDS011;30041;48.300;16.352;2023-04-24T00:14:31;3.45;;;1.77;;
43311;SDS011;30041;48.300;16.352;2023-04-24T00:16:56;3.67;;;1.70;;
43311;SDS011;30041;48.300;16.352;2023-04-24T00:19:22;2.97;;;1.70;;
43311;SDS011;30041;48.300;16.352;2023-04-24T00:21:47;2.10;;;1.40;;
43311;SDS011;30041;48.300;16.352;2023-04-24T00:24:13;2.58;;;1.70;;
43311;SDS011;30041;48.300;16.352;2023-04-24T00:26:38;2.60;;;1.80;;
43311;SDS011;30041;48.300;16.352;2023-04-24T00:29:04;2.95;;;1.67;;
43311;SDS011;30041;48.300;16.352;2023-04-24T00:31:29;2.67;;;1.70;;
43311;SDS011;30041;48.300;16.352;2023-04-24T00:33:55;4.78;;;1.75;;
43311;SDS011;30041;48.300;16.352;2023-04-24T00:36:20;3.13;;;1.75;;
43311;SDS011;30041;48.300;16.352;2023-04-24T00:38:46;2.60;;;1.60;;
43311;SDS011;30041;48.300;16.352;2023-04-24T00:41:11;2.30;;;1.50;;
43311;SDS011;30041;48.300;16.352;2023-04-24T00:43:37;2.20;;;1.55;;
43311;SDS011;30041;48.300;16.352;2023-04-24T00:46:03;3.50;;;1.50;;
43311;SDS011;30041;48.300;16.352;2023-04-24T00:48:28;2.53;;;1.63;;
43311;SDS011;30041;48.300;16.352;2023-04-24T00:50:55;2.72;;;1.50;;
43311;SDS011;30041;48.300;16.352;2023-04-24T00:53:21;2.42;;;1.40;;
43311;SDS011;30041;48.300;16.352;2023-04-24T00:55:46;2.10;;;1.50;;
43311;SDS011;30041;48.300;16.352;2023-04-24T00:58:12;2.63;;;1.60;;
43311;SDS011;30041;48.300;16.352;2023-04-24T01:00:38;2.67;;;1.77;;
43311;SDS011;30041;48.300;16.352;2023-04-24T01:03:04;2.28;;;1.70;;
43311;SDS011;30041;48.300;16.352;2023-04-24T01:05:30;2.60;;;1.52;;
43311;SDS011;30041;48.300;16.352;2023-04-24T01:07:56;1.98;;;1.40;;
43311;SDS011;30041;48.300;16.352;2023-04-24T01:10:23;2.55;;;1.58;;
43311;SDS011;30041;48.300;16.352;2023-04-24T01:12:50;2.47;;;1.63;;
43311;SDS011;30041;48.300;16.352;2023-04-24T01:15:16;2.20;;;1.40;;
43311;SDS011;30041;48.300;16.352;2023-04-24T01:17:42;2.05;;;1.50;;
43311;SDS011;30041;48.300;16.352;2023-04-24T01:20:08;2.40;;;1.60;;
43311;SDS011;30041;48.300;16.352;2023-04-24T01:22:34;1.73;;;1.30;;
43311;SDS011;30041;48.300;16.352;2023-04-24T01:25:00;3.15;;;1.85;;
43311;SDS011;30041;48.300;16.352;2023-04-24T01:27:26;2.00;;;1.50;;
43311;SDS011;30041;48.300;16.352;2023-04-24T01:29:51;3.28;;;1.48;;
43311;SDS011;30041;48.300;16.352;2023-04-24T01:32:17;1.90;;;1.40;;
43311;SDS011;30041;48.300;16.352;2023-04-24T01:34:43;2.25;;;1.67;;
43311;SDS011;30041;48.300;16.352;2023-04-24T01:37:09;2.00;;;1.33;;
43311;SDS011;30041;48.300;16.352;2023-04-24T01:39:34;1.90;;;1.27;;
43311;SDS011;30041;48.300;16.352;2023-04-24T01:42:00;3.65;;;1.55;;
43311;SDS011;30041;48.300;16.352;2023-04-24T01:44:26;1.98;;;1.30;;
43311;SDS011;30041;48.300;16.352;2023-04-24T01:46:52;3.20;;;1.60;;
43311;SDS011;30041;48.300;16.352;2023-04-24T01:49:18;1.92;;;1.42;;
43311;SDS011;30041;48.300;16.352;2023-04-24T01:51:43;1.85;;;1.50;;
43311;SDS011;30041;48.300;16.352;2023-04-24T01:54:09;2.85;;;1.40;;
43311;SDS011;30041;48.300;16.352;2023-04-24T01:56:34;2.53;;;1.40;;
43311;SDS011;30041;48.300;16.352;2023-04-24T01:59:00;1.92;;;1.40;;
43311;SDS011;30041;48.300;16.352;2023-04-24T02:01:31;2.25;;;1.50;;
43311;SDS011;30041;48.300;16.352;2023-04-24T02:03:59;2.50;;;1.50;;
43311;SDS011;30041;48.300;16.352;2023-04-24T02:06:25;2.10;;;1.40;;
43311;SDS011;30041;48.300;16.352;2023-04-24T02:08:50;1.75;;;1.30;;
43311;SDS011;30041;48.300;16.352;2023-04-24T02:11:16;2.03;;;1.30;;
43311;SDS011;30041;48.300;16.352;2023-04-24T02:13:41;1.77;;;1.25;;
43311;SDS011;30041;48.300;16.352;2023-04-24T02:16:07;2.08;;;1.38;;
43311;SDS011;30041;48.300;16.352;2023-04-24T02:18:32;1.48;;;1.20;;
43311;SDS011;30041;48.300;16.352;2023-04-24T02:20:58;1.83;;;1.30;;
43311;SDS011;30041;48.300;16.352;2023-04-24T02:23:23;2.22;;;1.60;;
43311;SDS011;30041;48.300;16.352;2023-04-24T02:25:49;1.83;;;1.23;;
43311;SDS011;30041;48.300;16.352;2023-04-24T02:28:14;1.83;;;1.30;;
43311;SDS011;30041;48.300;16.352;2023-04-24T02:30:40;2.53;;;1.50;;
43311;SDS011;30041;48.300;16.352;2023-04-24T02:33:05;2.92;;;1.40;;
43311;SDS011;30041;48.300;16.352;2023-04-24T02:35:31;1.98;;;1.42;;
43311;SDS011;30041;48.300;16.352;2023-04-24T02:37:57;2.35;;;1.30;;
43311;SDS011;30041;48.300;16.352;2023-04-24T02:40:22;1.63;;;1.20;;
43311;SDS011;30041;48.300;16.352;2023-04-24T02:42:47;2.30;;;1.38;;
43311;SDS011;30041;48.300;16.352;2023-04-24T02:45:13;1.85;;;1.30;;
43311;SDS011;30041;48.300;16.352;2023-04-24T02:47:39;1.33;;;1.17;;
43311;SDS011;30041;48.300;16.352;2023-04-24T02:50:04;1.80;;;1.30;;
43311;SDS011;30041;48.300;16.352;2023-04-24T02:52:31;1.80;;;1.30;;
43311;SDS011;30041;48.300;16.352;2023-04-24T02:54:56;2.00;;;1.23;;
43311;SDS011;30041;48.300;16.352;2023-04-24T02:57:21;2.55;;;1.30;;
43311;SDS011;30041;48.300;16.352;2023-04-24T02:59:47;1.73;;;1.27;;
43311;SDS011;30041;48.300;16.352;2023-04-24T03:02:12;1.50;;;1.15;;
43311;SDS011;30041;48.300;16.352;2023-04-24T03:04:38;2.55;;;1.23;;
43311;SDS011;30041;48.300;16.352;2023-04-24T03:07:03;1.58;;;1.20;;
43311;SDS011;30041;48.300;16.352;2023-04-24T03:09:29;1.80;;;1.13;;
43311;SDS011;30041;48.300;16.352;2023-04-24T03:11:54;1.52;;;1.20;;
43311;SDS011;30041;48.300;16.352;2023-04-24T03:14:20;1.40;;;1.20;;
43311;SDS011;30041;48.300;16.352;2023-04-24T03:16:45;1.90;;;1.30;;
43311;SDS011;30041;48.300;16.352;2023-04-24T03:19:11;1.90;;;1.33;;
43311;SDS011;30041;48.300;16.352;2023-04-24T03:21:36;1.58;;;1.10;;
43311;SDS011;30041;48.300;16.352;2023-04-24T03:24:02;1.58;;;1.17;;
43311;SDS011;30041;48.300;16.352;2023-04-24T03:26:27;1.45;;;1.13;;
43311;SDS011;30041;48.300;16.352;2023-04-24T03:28:53;1.73;;;1.33;;
43311;SDS011;30041;48.300;16.352;2023-04-24T03:31:18;1.65;;;1.15;;
43311;SDS011;30041;48.300;16.352;2023-04-24T03:33:44;2.08;;;1.50;;
43311;SDS011;30041;48.300;16.352;2023-04-24T03:36:09;1.55;;;1.10;;
43311;SDS011;30041;48.300;16.352;2023-04-24T03:38:35;2.92;;;1.50;;
43311;SDS011;30041;48.300;16.352;2023-04-24T03:41:00;5.30;;;1.60;;
43311;SDS011;30041;48.300;16.352;2023-04-24T03:43:26;3.15;;;1.50;;
43311;SDS011;30041;48.300;16.352;2023-04-24T03:45:51;4.22;;;1.40;;
43311;SDS011;30041;48.300;16.352;2023-04-24T03:48:16;3.13;;;1.40;;
43311;SDS011;30041;48.300;16.352;2023-04-24T03:50:42;2.35;;;1.17;;
43311;SDS011;30041;48.300;16.352;2023-04-24T03:53:07;1.75;;;1.30;;
43311;SDS011;30041;48.300;16.352;2023-04-24T03:55:33;1.77;;;1.48;;
43311;SDS011;30041;48.300;16.352;2023-04-24T03:57:58;2.47;;;1.42;;
43311;SDS011;30041;48.300;16.352;2023-04-24T04:00:24;2.92;;;1.20;;
43311;SDS011;30041;48.300;16.352;2023-04-24T04:02:49;1.55;;;1.10;;
43311;SDS011;30041;48.300;16.352;2023-04-24T04:05:15;1.83;;;1.20;;
43311;SDS011;30041;48.300;16.352;2023-04-24T04:07:40;2.08;;;1.30;;
43311;SDS011;30041;48.300;16.352;2023-04-24T04:10:06;2.65;;;1.35;;
43311;SDS011;30041;48.300;16.352;2023-04-24T04:12:32;1.38;;;1.00;;
43311;SDS011;30041;48.300;16.352;2023-04-24T04:14:57;1.83;;;0.90;;
43311;SDS011;30041;48.300;16.352;2023-04-24T04:17:23;1.70;;;1.17;;
43311;SDS011;30041;48.300;16.352;2023-04-24T04:19:48;2.45;;;1.20;;
43311;SDS011;30041;48.300;16.352;2023-04-24T04:22:14;1.75;;;1.30;;
43311;SDS011;30041;48.300;16.352;2023-04-24T04:24:39;1.50;;;1.10;;
43311;SDS011;30041;48.300;16.352;2023-04-24T04:27:05;1.63;;;1.00;;
43311;SDS011;30041;48.300;16.352;2023-04-24T04:29:30;1.40;;;1.10;;
43311;SDS011;30041;48.300;16.352;2023-04-24T04:31:56;1.02;;;0.93;;
43311;SDS011;30041;48.300;16.352;2023-04-24T04:34:22;4.30;;;1.60;;
43311;SDS011;30041;48.300;16.352;2023-04-24T04:36:47;8.30;;;1.85;;
43311;SDS011;30041;48.300;16.352;2023-04-24T04:39:13;4.95;;;1.40;;
43311;SDS011;30041;48.300;16.352;2023-04-24T04:41:38;5.38;;;1.50;;
43311;SDS011;30041;48.300;16.352;2023-04-24T04:44:03;6.47;;;1.60;;
43311;SDS011;30041;48.300;16.352;2023-04-24T04:46:29;6.22;;;2.00;;
43311;SDS011;30041;48.300;16.352;2023-04-24T04:48:55;10.02;;;1.92;;
43311;SDS011;30041;48.300;16.352;2023-04-24T04:51:20;5.55;;;1.48;;
43311;SDS011;30041;48.300;16.352;2023-04-24T04:53:46;3.25;;;1.60;;
43311;SDS011;30041;48.300;16.352;2023-04-24T04:56:11;5.55;;;1.70;;
43311;SDS011;30041;48.300;16.352;2023-04-24T04:58:37;14.93;;;2.40;;
43311;SDS011;30041;48.300;16.352;2023-04-24T05:01:02;10.43;;;1.80;;
43311;SDS011;30041;48.300;16.352;2023-04-24T05:03:28;4.50;;;1.80;;
43311;SDS011;30041;48.300;16.352;2023-04-24T05:05:53;9.63;;;2.08;;
43311;SDS011;30041;48.300;16.352;2023-04-24T05:08:19;13.18;;;2.03;;
43311;SDS011;30041;48.300;16.352;2023-04-24T05:10:44;9.02;;;2.60;;
43311;SDS011;30041;48.300;16.352;2023-04-24T05:13:10;12.80;;;1.85;;
43311;SDS011;30041;48.300;16.352;2023-04-24T05:15:35;11.00;;;2.30;;
43311;SDS011;30041;48.300;16.352;2023-04-24T05:18:01;9.15;;;1.90;;
43311;SDS011;30041;48.300;16.352;2023-04-24T05:20:26;17.30;;;2.00;;
43311;SDS011;30041;48.300;16.352;2023-04-24T05:22:52;10.07;;;1.95;;
43311;SDS011;30041;48.300;16.352;2023-04-24T05:25:17;12.52;;;2.22;;
43311;SDS011;30041;48.300;16.352;2023-04-24T05:27:43;4.97;;;1.60;;
43311;SDS011;30041;48.300;16.352;2023-04-24T05:30:08;7.50;;;2.03;;
43311;SDS011;30041;48.300;16.352;2023-04-24T05:32:34;5.95;;;2.08;;
43311;SDS011;30041;48.300;16.352;2023-04-24T05:35:01;9.10;;;2.05;;
43311;SDS011;30041;48.300;16.352;2023-04-24T05:37:27;7.57;;;1.90;;
43311;SDS011;30041;48.300;16.352;2023-04-24T05:39:52;6.68;;;1.65;;
43311;SDS011;30041;48.300;16.352;2023-04-24T05:42:17;7.07;;;1.75;;
43311;SDS011;30041;48.300;16.352;2023-04-24T05:44:43;4.32;;;1.60;;
43311;SDS011;30041;48.300;16.352;2023-04-24T05:47:08;4.43;;;1.50;;
43311;SDS011;30041;48.300;16.352;2023-04-24T05:49:34;6.72;;;2.00;;
43311;SDS011;30041;48.300;16.352;2023-04-24T05:51:59;5.75;;;1.65;;
43311;SDS011;30041;48.300;16.352;2023-04-24T05:54:25;4.20;;;1.33;;
43311;SDS011;30041;48.300;16.352;2023-04-24T05:56:50;4.18;;;1.20;;
43311;SDS011;30041;48.300;16.352;2023-04-24T05:59:15;3.67;;;1.45;;
43311;SDS011;30041;48.300;16.352;2023-04-24T06:01:41;4.90;;;1.13;;
43311;SDS011;30041;48.300;16.352;2023-04-24T06:04:06;3.05;;;0.98;;
43311;SDS011;30041;48.300;16.352;2023-04-24T06:06:32;2.63;;;1.08;;
43311;SDS011;30041;48.300;16.352;2023-04-24T06:08:57;2.72;;;1.00;;
43311;SDS011;30041;48.300;16.352;2023-04-24T06:11:23;2.90;;;1.00;;
43311;SDS011;30041;48.300;16.352;2023-04-24T06:13:48;2.80;;;1.10;;
43311;SDS011;30041;48.300;16.352;2023-04-24T06:16:13;3.42;;;0.85;;
43311;SDS011;30041;48.300;16.352;2023-04-24T06:18:39;1.83;;;0.70;;
43311;SDS011;30041;48.300;16.352;2023-04-24T06:21:05;2.35;;;0.90;;
43311;SDS011;30041;48.300;16.352;2023-04-24T06:23:30;1.83;;;0.80;;
43311;SDS011;30041;48.300;16.352;2023-04-24T06:25:56;2.40;;;0.60;;
43311;SDS011;30041;48.300;16.352;2023-04-24T06:28:21;1.73;;;0.60;;
43311;SDS011;30041;48.300;16.352;2023-04-24T06:30:46;1.58;;;0.70;;
43311;SDS011;30041;48.300;16.352;2023-04-24T06:33:12;1.00;;;0.68;;
43311;SDS011;30041;48.300;16.352;2023-04-24T06:35:37;1.25;;;0.70;;
43311;SDS011;30041;48.300;16.352;2023-04-24T06:38:03;1.73;;;0.77;;
43311;SDS011;30041;48.300;16.352;2023-04-24T06:40:28;2.35;;;0.60;;
43311;SDS011;30041;48.300;16.352;2023-04-24T06:42:54;2.00;;;0.88;;
43311;SDS011;30041;48.300;16.352;2023-04-24T06:45:19;4.72;;;1.50;;
43311;SDS011;30041;48.300;16.352;2023-04-24T06:47:45;5.47;;;1.30;;
43311;SDS011;30041;48.300;16.352;2023-04-24T06:50:11;5.28;;;1.58;;
43311;SDS011;30041;48.300;16.352;2023-04-24T06:52:37;4.13;;;1.40;;
43311;SDS011;30041;48.300;16.352;2023-04-24T06:55:03;3.47;;;1.30;;
43311;SDS011;30041;48.300;16.352;2023-04-24T06:57:29;2.58;;;1.10;;
43311;SDS011;30041;48.300;16.352;2023-04-24T06:59:54;4.68;;;1.63;;
43311;SDS011;30041;48.300;16.352;2023-04-24T07:02:20;2.67;;;1.30;;
43311;SDS011;30041;48.300;16.352;2023-04-24T07:04:46;4.10;;;1.40;;
43311;SDS011;30041;48.300;16.352;2023-04-24T07:07:12;5.90;;;1.27;;
43311;SDS011;30041;48.300;16.352;2023-04-24T07:09:37;4.97;;;1.45;;
43311;SDS011;30041;48.300;16.352;2023-04-24T07:12:03;4.95;;;1.42;;
43311;SDS011;30041;48.300;16.352;2023-04-24T07:14:29;4.18;;;1.50;;
43311;SDS011;30041;48.300;16.352;2023-04-24T07:16:54;4.63;;;1.13;;
43311;SDS011;30041;48.300;16.352;2023-04-24T07:19:20;2.83;;;1.23;;
43311;SDS011;30041;48.300;16.352;2023-04-24T07:21:45;3.28;;;1.33;;
43311;SDS011;30041;48.300;16.352;2023-04-24T07:24:10;3.40;;;1.40;;
43311;SDS011;30041;48.300;16.352;2023-04-24T07:26:36;2.63;;;1.40;;
43311;SDS011;30041;48.300;16.352;2023-04-24T07:29:02;3.47;;;1.42;;
43311;SDS011;30041;48.300;16.352;2023-04-24T07:31:28;5.68;;;1.40;;
43311;SDS011;30041;48.300;16.352;2023-04-24T07:33:53;2.92;;;1.48;;
43311;SDS011;30041;48.300;16.352;2023-04-24T07:36:18;2.75;;;1.20;;
43311;SDS011;30041;48.300;16.352;2023-04-24T07:38:47;2.53;;;1.40;;
43311;SDS011;30041;48.300;16.352;2023-04-24T07:41:13;2.38;;;1.40;;
43311;SDS011;30041;48.300;16.352;2023-04-24T07:43:39;4.13;;;1.20;;
43311;SDS011;30041;48.300;16.352;2023-04-24T07:46:04;3.00;;;1.38;;
43311;SDS011;30041;48.300;16.352;2023-04-24T07:48:30;1.95;;;1.20;;
43311;SDS011;30041;48.300;16.352;2023-04-24T07:50:55;2.10;;;1.33;;
43311;SDS011;30041;48.300;16.352;2023-04-24T07:53:21;2.50;;;1.10;;
43311;SDS011;30041;48.300;16.352;2023-04-24T07:55:46;1.95;;;1.10;;
43311;SDS011;30041;48.300;16.352;2023-04-24T07:58:12;2.40;;;1.30;;
43311;SDS011;30041;48.300;16.352;2023-04-24T08:00:37;4.43;;;1.50;;
43311;SDS011;30041;48.300;16.352;2023-04-24T08:03:03;1.85;;;1.20;;
43311;SDS011;30041;48.300;16.352;2023-04-24T08:05:29;2.38;;;1.20;;
43311;SDS011;30041;48.300;16.352;2023-04-24T08:07:54;3.15;;;1.27;;
43311;SDS011;30041;48.300;16.352;2023-04-24T08:10:20;2.00;;;1.20;;
43311;SDS011;30041;48.300;16.352;2023-04-24T08:12:47;2.47;;;1.08;;
43311;SDS011;30041;48.300;16.352;2023-04-24T08:15:13;2.70;;;1.30;;
43311;SDS011;30041;48.300;16.352;2023-04-24T08:17:38;1.83;;;1.25;;
43311;SDS011;30041;48.300;16.352;2023-04-24T08:20:04;5.07;;;1.27;;
43311;SDS011;30041;48.300;16.352;2023-04-24T08:22:30;3.13;;;1.63;;
43311;SDS011;30041;48.300;16.352;2023-04-24T08:24:56;1.95;;;1.40;;
43311;SDS011;30041;48.300;16.352;2023-04-24T08:27:23;2.40;;;1.20;;
43311;SDS011;30041;48.300;16.352;2023-04-24T08:29:49;2.55;;;1.40;;
43311;SDS011;30041;48.300;16.352;2023-04-24T08:32:15;2.30;;;1.20;;
43311;SDS011;30041;48.300;16.352;2023-04-24T08:34:40;2.63;;;1.40;;
43311;SDS011;30041;48.300;16.352;2023-04-24T08:37:06;3.55;;;1.35;;
43311;SDS011;30041;48.300;16.352;2023-04-24T08:39:31;3.53;;;1.92;;
43311;SDS011;30041;48.300;16.352;2023-04-24T08:41:57;4.20;;;2.20;;
43311;SDS011;30041;48.300;16.352;2023-04-24T08:44:24;5.75;;;3.17;;
43311;SDS011;30041;48.300;16.352;2023-04-24T08:46:50;7.07;;;2.80;;
43311;SDS011;30041;48.300;16.352;2023-04-24T08:49:15;6.72;;;3.58;;
43311;SDS011;30041;48.300;16.352;2023-04-24T08:51:41;10.98;;;4.70;;
43311;SDS011;30041;48.300;16.352;2023-04-24T08:54:07;10.35;;;5.32;;
43311;SDS011;30041;48.300;16.352;2023-04-24T08:56:33;13.57;;;5.63;;
43311;SDS011;30041;48.300;16.352;2023-04-24T08:59:01;10.65;;;3.28;;
43311;SDS011;30041;48.300;16.352;2023-04-24T09:01:27;10.05;;;3.60;;
43311;SDS011;30041;48.300;16.352;2023-04-24T09:03:53;8.52;;;3.33;;
43311;SDS011;30041;48.300;16.352;2023-04-24T09:06:20;7.07;;;2.95;;
43311;SDS011;30041;48.300;16.352;2023-04-24T09:08:47;9.90;;;3.97;;
43311;SDS011;30041;48.300;16.352;2023-04-24T09:11:18;7.43;;;3.20;;
43311;SDS011;30041;48.300;16.352;2023-04-24T09:13:44;6.63;;;3.00;;
43311;SDS011;30041;48.300;16.352;2023-04-24T09:16:11;6.55;;;3.13;;
43311;SDS011;30041;48.300;16.352;2023-04-24T09:18:36;6.25;;;3.28;;
43311;SDS011;30041;48.300;16.352;2023-04-24T09:23:34;9.35;;;3.63;;
43311;SDS011;30041;48.300;16.352;2023-04-24T09:26:00;8.05;;;3.15;;
43311;SDS011;30041;48.300;16.352;2023-04-24T09:28:34;6.47;;;3.05;;
43311;SDS011;30041;48.300;16.352;2023-04-24T09:31:09;7.28;;;2.85;;
43311;SDS011;30041;48.300;16.352;2023-04-24T09:33:37;5.40;;;2.70;;
43311;SDS011;30041;48.300;16.352;2023-04-24T09:36:03;7.18;;;2.88;;
43311;SDS011;30041;48.300;16.352;2023-04-24T09:38:33;5.90;;;2.67;;
43311;SDS011;30041;48.300;16.352;2023-04-24T09:41:04;4.97;;;2.25;;
43311;SDS011;30041;48.300;16.352;2023-04-24T09:43:31;5.45;;;2.45;;
43311;SDS011;30041;48.300;16.352;2023-04-24T09:45:57;5.68;;;2.40;;
43311;SDS011;30041;48.300;16.352;2023-04-24T09:48:33;5.88;;;2.45;;
43311;SDS011;30041;48.300;16.352;2023-04-24T09:53:27;3.33;;;2.20;;
43311;SDS011;30041;48.300;16.352;2023-04-24T09:55:54;5.35;;;2.30;;
43311;SDS011;30041;48.300;16.352;2023-04-24T09:58:26;3.95;;;1.80;;
43311;SDS011;30041;48.300;16.352;2023-04-24T10:00:55;4.07;;;2.10;;
43311;SDS011;30041;48.300;16.352;2023-04-24T10:03:23;4.40;;;2.03;;
43311;SDS011;30041;48.300;16.352;2023-04-24T10:05:51;5.13;;;2.05;;
43311;SDS011;30041;48.300;16.352;2023-04-24T10:08:17;6.22;;;2.33;;
43311;SDS011;30041;48.300;16.352;2023-04-24T10:10:44;3.95;;;1.70;;
43311;SDS011;30041;48.300;16.352;2023-04-24T10:13:11;2.85;;;1.20;;
43311;SDS011;30041;48.300;16.352;2023-04-24T10:15:38;5.85;;;1.85;;
43311;SDS011;30041;48.300;16.352;2023-04-24T10:18:05;3.28;;;1.55;;
43311;SDS011;30041;48.300;16.352;2023-04-24T10:20:31;3.95;;;1.70;;
43311;SDS011;30041;48.300;16.352;2023-04-24T10:22:57;2.97;;;1.50;;
43311;SDS011;30041;48.300;16.352;2023-04-24T10:25:27;4.88;;;2.00;;
43311;SDS011;30041;48.300;16.352;2023-04-24T10:27:54;6.93;;;2.28;;
43311;SDS011;30041;48.300;16.352;2023-04-24T10:30:20;4.10;;;1.98;;
43311;SDS011;30041;48.300;16.352;2023-04-24T10:32:45;4.68;;;1.75;;
43311;SDS011;30041;48.300;16.352;2023-04-24T10:35:12;5.38;;;1.77;;
43311;SDS011;30041;48.300;16.352;2023-04-24T10:37:40;4.18;;;1.80;;
43311;SDS011;30041;48.300;16.352;2023-04-24T10:40:25;5.25;;;2.13;;
43311;SDS011;30041;48.300;16.352;2023-04-24T10:42:52;4.35;;;1.63;;
43311;SDS011;30041;48.300;16.352;2023-04-24T10:45:19;4.53;;;1.90;;
43311;SDS011;30041;48.300;16.352;2023-04-24T10:47:54;6.75;;;1.98;;
43311;SDS011;30041;48.300;16.352;2023-04-24T10:50:22;4.72;;;1.55;;
43311;SDS011;30041;48.300;16.352;2023-04-24T10:52:48;3.72;;;1.15;;
43311;SDS011;30041;48.300;16.352;2023-04-24T10:55:14;2.88;;;1.27;;
43311;SDS011;30041;48.300;16.352;2023-04-24T10:57:40;3.00;;;1.35;;
43311;SDS011;30041;48.300;16.352;2023-04-24T11:00:29;3.83;;;1.40;;
43311;SDS011;30041;48.300;16.352;2023-04-24T11:02:54;2.65;;;1.30;;
43311;SDS011;30041;48.300;16.352;2023-04-24T11:05:21;3.65;;;1.10;;
43311;SDS011;30041;48.300;16.352;2023-04-24T11:10:44;3.13;;;1.15;;
43311;SDS011;30041;48.300;16.352;2023-04-24T11:13:22;1.80;;;1.02;;
43311;SDS011;30041;48.300;16.352;2023-04-24T11:18:39;2.25;;;0.90;;
43311;SDS011;30041;48.300;16.352;2023-04-24T11:21:13;2.03;;;0.90;;
43311;SDS011;30041;48.300;16.352;2023-04-24T11:23:42;2.90;;;0.90;;
43311;SDS011;30041;48.300;16.352;2023-04-24T11:26:18;1.40;;;0.77;;
43311;SDS011;30041;48.300;16.352;2023-04-24T11:28:49;1.75;;;0.70;;
43311;SDS011;30041;48.300;16.352;2023-04-24T11:31:33;2.45;;;0.75;;
43311;SDS011;30041;48.300;16.352;2023-04-24T11:34:09;2.08;;;0.95;;
43311;SDS011;30041;48.300;16.352;2023-04-24T11:36:36;1.85;;;0.80;;
43311;SDS011;30041;48.300;16.352;2023-04-24T11:39:02;1.80;;;0.80;;
43311;SDS011;30041;48.300;16.352;2023-04-24T11:41:28;1.13;;;0.75;;
43311;SDS011;30041;48.300;16.352;2023-04-24T11:49:49;1.27;;;0.57;;
43311;SDS011;30041;48.300;16.352;2023-04-24T11:52:15;1.20;;;0.40;;
43311;SDS011;30041;48.300;16.352;2023-04-24T11:54:46;0.93;;;0.30;;
43311;SDS011;30041;48.300;16.352;2023-04-24T11:57:12;1.02;;;0.60;;
43311;SDS011;30041;48.300;16.352;2023-04-24T11:59:38;0.28;;;0.28;;
43311;SDS011;30041;48.300;16.352;2023-04-24T12:02:03;1.08;;;0.50;;
43311;SDS011;30041;48.300;16.352;2023-04-24T12:04:37;1.00;;;0.60;;
43311;SDS011;30041;48.300;16.352;2023-04-24T12:07:04;0.40;;;0.30;;
43311;SDS011;30041;48.300;16.352;2023-04-24T12:09:39;0.50;;;0.40;;
43311;SDS011;30041;48.300;16.352;2023-04-24T12:12:12;0.35;;;0.25;;
43311;SDS011;30041;48.300;16.352;2023-04-24T12:17:24;0.85;;;0.30;;
43311;SDS011;30041;48.300;16.352;2023-04-24T12:19:56;0.65;;;0.30;;
43311;SDS011;30041;48.300;16.352;2023-04-24T12:22:23;0.60;;;0.40;;
43311;SDS011;30041;48.300;16.352;2023-04-24T12:25:01;0.60;;;0.30;;
43311;SDS011;30041;48.300;16.352;2023-04-24T12:27:29;0.75;;;0.30;;
43311;SDS011;30041;48.300;16.352;2023-04-24T12:30:02;0.43;;;0.28;;
43311;SDS011;30041;48.300;16.352;2023-04-24T12:32:29;0.40;;;0.28;;
43311;SDS011;30041;48.300;16.352;2023-04-24T12:34:54;0.25;;;0.15;;
43311;SDS011;30041;48.300;16.352;2023-04-24T12:37:22;0.57;;;0.30;;
43311;SDS011;30041;48.300;16.352;2023-04-24T12:40:07;0.40;;;0.30;;
43311;SDS011;30041;48.300;16.352;2023-04-24T12:42:34;0.82;;;0.30;;
43311;SDS011;30041;48.300;16.352;2023-04-24T12:45:06;0.47;;;0.20;;
43311;SDS011;30041;48.300;16.352;2023-04-24T12:47:32;0.40;;;0.20;;
43311;SDS011;30041;48.300;16.352;2023-04-24T12:49:59;1.02;;;0.30;;
43311;SDS011;30041;48.300;16.352;2023-04-24T12:52:26;0.20;;;0.20;;
43311;SDS011;30041;48.300;16.352;2023-04-24T12:54:52;0.40;;;0.20;;
43311;SDS011;30041;48.300;16.352;2023-04-24T12:57:19;0.30;;;0.20;;
43311;SDS011;30041;48.300;16.352;2023-04-24T12:59:44;0.10;;;0.10;;
43311;SDS011;30041;48.300;16.352;2023-04-24T13:02:10;0.60;;;0.20;;
43311;SDS011;30041;48.300;16.352;2023-04-24T13:04:36;0.20;;;0.15;;
43311;SDS011;30041;48.300;16.352;2023-04-24T13:07:02;0.17;;;0.10;;
43311;SDS011;30041;48.300;16.352;2023-04-24T13:09:27;0.25;;;0.13;;
43311;SDS011;30041;48.300;16.352;2023-04-24T13:11:53;0.55;;;0.10;;
43311;SDS011;30041;48.300;16.352;2023-04-24T13:14:19;0.10;;;0.10;;
43311;SDS011;30041;48.300;16.352;2023-04-24T13:16:45;0.47;;;0.15;;
43311;SDS011;30041;48.300;16.352;2023-04-24T13:19:10;0.10;;;0.10;;
43311;SDS011;30041;48.300;16.352;2023-04-24T13:21:35;0.65;;;0.20;;
43311;SDS011;30041;48.300;16.352;2023-04-24T13:24:01;0.20;;;0.17;;
43311;SDS011;30041;48.300;16.352;2023-04-24T13:26:27;0.28;;;0.17;;
43311;SDS011;30041;48.300;16.352;2023-04-24T13:28:52;0.28;;;0.20;;
43311;SDS011;30041;48.300;16.352;2023-04-24T13:31:17;0.20;;;0.10;;
43311;SDS011;30041;48.300;16.352;2023-04-24T13:33:43;0.30;;;0.10;;
43311;SDS011;30041;48.300;16.352;2023-04-24T13:36:08;0.30;;;0.10;;
43311;SDS011;30041;48.300;16.352;2023-04-24T13:38:34;0.13;;;0.10;;
43311;SDS011;30041;48.300;16.352;2023-04-24T13:40:59;0.85;;;0.20;;
43311;SDS011;30041;48.300;16.352;2023-04-24T13:43:25;0.57;;;0.20;;
43311;SDS011;30041;48.300;16.352;2023-04-24T13:45:50;0.57;;;0.10;;
43311;SDS011;30041;48.300;16.352;2023-04-24T13:48:16;0.20;;;0.10;;
43311;SDS011;30041;48.300;16.352;2023-04-24T13:50:42;0.30;;;0.10;;
43311;SDS011;30041;48.300;16.352;2023-04-24T13:53:07;0.63;;;0.20;;
43311;SDS011;30041;48.300;16.352;2023-04-24T13:55:33;0.60;;;0.10;;
43311;SDS011;30041;48.300;16.352;2023-04-24T13:57:58;0.95;;;0.20;;
43311;SDS011;30041;48.300;16.352;2023-04-24T14:00:24;0.05;;;0.05;;
43311;SDS011;30041;48.300;16.352;2023-04-24T14:02:49;0.22;;;0.10;;
43311;SDS011;30041;48.300;16.352;2023-04-24T14:05:15;0.55;;;0.10;;
43311;SDS011;30041;48.300;16.352;2023-04-24T14:07:41;0.73;;;0.10;;
43311;SDS011;30041;48.300;16.352;2023-04-24T14:10:07;0.10;;;0.10;;
43311;SDS011;30041;48.300;16.352;2023-04-24T14:12:32;0.10;;;0.10;;
43311;SDS011;30041;48.300;16.352;2023-04-24T14:14:58;0.10;;;0.10;;
43311;SDS011;30041;48.300;16.352;2023-04-24T14:17:24;0.20;;;0.10;;
43311;SDS011;30041;48.300;16.352;2023-04-24T14:19:49;0.13;;;0.10;;
43311;SDS011;30041;48.300;16.352;2023-04-24T14:22:15;0.32;;;0.10;;
43311;SDS011;30041;48.300;16.352;2023-04-24T14:24:40;0.00;;;0.00;;
43311;SDS011;30041;48.300;16.352;2023-04-24T14:27:05;0.10;;;0.00;;
43311;SDS011;30041;48.300;16.352;2023-04-24T14:29:31;0.10;;;0.00;;
43311;SDS011;30041;48.300;16.352;2023-04-24T14:31:56;0.10;;;0.00;;
43311;SDS011;30041;48.300;16.352;2023-04-24T14:34:22;0.10;;;0.10;;
43311;SDS011;30041;48.300;16.352;2023-04-24T14:36:47;0.10;;;0.08;;
43311;SDS011;30041;48.300;16.352;2023-04-24T14:39:13;0.15;;;0.10;;
43311;SDS011;30041;48.300;16.352;2023-04-24T14:41:38;0.32;;;0.10;;
43311;SDS011;30041;48.300;16.352;2023-04-24T14:44:03;0.05;;;0.05;;
43311;SDS011;30041;48.300;16.352;2023-04-24T14:46:29;0.10;;;0.10;;
43311;SDS011;30041;48.300;16.352;2023-04-24T14:48:55;0.00;;;0.00;;